Terminal Aerodrome Forecast
Issued by NWS

Home | Current Version | Previous Version | Text Only | Print | Product List | Glossary On
Versions: 1 2 3 4 5 6 7 8 9 10 11 12 13 14 15 16 17 18 19
000
FTUS44 KMAF 130500
TAFFST
TAF
KFST 130530Z 1306/1406 15010KT P6SM FEW250
     FM131700 14013G22KT P6SM FEW100 SCT250
     FM140100 15008KT P6SM FEW250=

USA.gov is the U.S. government's official web portal to all federal, state and local government web resources and services.